imperioamateur.net alexa rank chart, imperioamateur.net alexa rank daily changes

imperioamateur.net alexa rank chart, imperioamateur.net alexa rank daily changes

imperioamateur.net
Actual rank:
674 803

RANK HISTORY

Date Rank Diff
2017/02/23 674 803 -9 142
2017/02/22 683 945 +2 238
2017/02/21 681 707 -19 609
2017/02/20 701 316 +57 793
2017/02/19 643 523 +26 375
2017/02/18 617 148 +10 646
2017/02/17 606 502 -21 072
2017/02/16 627 574 +744
2017/02/15 626 830 +19 480
2017/02/14 607 350 +17 159
2017/02/13 590 191 -15 262
2017/02/12 605 453 +41 254
2017/02/11 564 199 +5 690
2017/02/10 558 509 -6 670
2017/02/09 565 179 +25 726
2017/02/08 539 453 +2 548
2017/02/07 536 905 +4 381
2017/02/06 532 524 +333
2017/02/05 532 191 -3 801
2017/02/04 535 992 -5 863
2017/02/03 541 855 -3 849
2017/02/02 545 704 +8 311
2017/02/01 537 393 +13 156
2017/01/31 524 237 +78
2017/01/30 524 159 -34 819
2017/01/29 558 978 -4 994
2017/01/28 563 972 +6 662
2017/01/27 557 310 -5 597
2017/01/26 562 907 -22 409
2017/01/25 585 316 +26 448
2017/01/24 558 868 -2 897
2017/01/23 561 765 +9 954
2017/01/22 551 811 -15 596
2017/01/21 567 407 +26 395
2017/01/20 541 012 -10 582
2017/01/19 551 594 -10 846
2017/01/18 562 440 +4 239
2017/01/17 558 201 -3 277
2017/01/16 561 478 -21 955
2017/01/15 583 433 -14 946
2017/01/14 598 379 +7 993
2017/01/13 590 386 +10 794
2017/01/12 579 592 -49 198
2017/01/11 628 790 +14 848
2017/01/10 613 942 +20 016
2017/01/09 593 926 +8 131
2017/01/08 585 795 +30 645
2017/01/07 555 150 +11 756
2017/01/06 543 394 +36 676
2017/01/05 506 718 +9 889
2017/01/04 496 829 -1 898
2017/01/03 498 727 -2 012
2017/01/02 500 739 -4 221
2017/01/01 504 960 -7 457
2016/12/31 512 417 +72
2016/12/30 512 345 +24 060
2016/12/29 488 285 -5 187
2016/12/28 493 472 +13 450
2016/12/27 480 022 +10 290
2016/12/26 469 732 +7 617
2016/12/25 462 115

WIDGET FOR YOUR SITE

DOMAINS WITH THE NEAREST RANK

Domain Rank
itgetsbetter.org 674 798
softplan.com 674 799
pharmencyclopedia.com.ua 674 800
slobodenprostor.com 674 801
admaru.com 674 802
imperioamateur.net 674 803
astratv.gr 674 804
estlandro.cc 674 805
marlobeauty.com 674 806
sitevisibility.co.uk 674 807
styledesign.jp 674 808

DOMAINS WITH THE NEAREST RANK BY TLD .net

Domain Rank
rxgl.net 674 735
japan-plus.net 674 746
pittsburghsports.net 674 755
desysa.net 674 784
bitmax.net 674 787
imperioamateur.net 674 803
geeks4yu.net 674 836
rjews.net 674 850
nptemp.net 674 855
puspitadewi.net 674 860
urduweb.net 674 887